Time;durP1;ratioP1;P1;durP2;ratioP2;P2;SDS_P1;SDS_P2;PMS_P1;PMS_P2;Temp;Humidity;BMP_temperature;BMP_pressure;BME280_temperature;BME280_humidity;BME280_pressure;Samples;Min_cycle;Max_cycle;Signal;HPM_P1;HPM_P2
2022/11/08 00:02:47;;;;;;;40.00;16.00;;;6.20;99.90;;;;;;6155689;23;20017;-76
2022/11/08 00:16:21;;;;;;;38.38;15.75;;;6.10;99.90;;;;;;6129633;23;20368;-76
2022/11/08 00:18:49;;;;;;;37.40;15.25;;;6.10;99.90;;;;;;6131796;23;20021;-76
2022/11/08 00:21:17;;;;;;;30.67;14.75;;;6.10;99.90;;;;;;6155720;23;20018;-76
2022/11/08 00:23:46;;;;;;;31.80;14.63;;;6.10;99.90;;;;;;6160665;23;20067;-76
2022/11/08 00:26:14;;;;;;;38.47;16.33;;;6.20;99.90;;;;;;6184900;23;20021;-76
2022/11/08 00:28:41;;;;;;;32.78;14.93;;;6.10;99.90;;;;;;6183201;23;20017;-76
2022/11/08 00:31:09;;;;;;;27.45;13.55;;;6.10;99.90;;;;;;6158350;23;20025;-76
2022/11/08 00:33:37;;;;;;;30.35;14.93;;;6.10;99.90;;;;;;6184669;23;20028;-76
2022/11/08 00:36:05;;;;;;;29.20;13.88;;;6.10;99.90;;;;;;6157559;23;20021;-76
2022/11/08 00:38:33;;;;;;;28.27;13.75;;;6.10;99.90;;;;;;6183122;23;20352;-76
2022/11/08 00:41:00;;;;;;;34.78;14.82;;;6.10;99.90;;;;;;6183551;23;20499;-76
2022/11/08 00:43:27;;;;;;;26.92;13.00;;;6.10;99.90;;;;;;6160216;23;20031;-76
2022/11/08 00:45:54;;;;;;;25.65;12.15;;;6.10;99.90;;;;;;6207397;23;20024;-76
2022/11/08 00:48:22;;;;;;;23.85;11.48;;;6.10;99.90;;;;;;6182342;23;20021;-76
2022/11/08 00:50:49;;;;;;;26.88;12.43;;;6.10;99.90;;;;;;6183302;23;20072;-76
2022/11/08 00:53:16;;;;;;;24.00;11.10;;;6.10;99.90;;;;;;6183755;23;20636;-76
2022/11/08 00:55:43;;;;;;;27.77;13.15;;;6.10;99.90;;;;;;6208378;23;20403;-76
2022/11/08 00:58:10;;;;;;;24.25;11.25;;;6.10;99.90;;;;;;6158620;23;20091;-76
2022/11/08 01:00:37;;;;;;;25.38;12.07;;;6.10;99.90;;;;;;6183896;23;20017;-76
2022/11/08 01:03:19;;;;;;;27.60;12.63;;;6.10;99.90;;;;;;6207466;23;20017;-76
2022/11/08 01:05:47;;;;;;;26.02;11.93;;;6.10;99.90;;;;;;6157920;23;20017;-76
2022/11/08 01:08:16;;;;;;;27.13;11.95;;;6.10;99.90;;;;;;6159509;23;20013;-76
2022/11/08 01:10:46;;;;;;;23.48;12.20;;;6.10;99.90;;;;;;6208792;23;20031;-76
2022/11/08 01:13:14;;;;;;;22.98;11.55;;;6.20;99.90;;;;;;6158306;23;20021;-76
2022/11/08 01:15:43;;;;;;;24.17;11.13;;;6.10;99.90;;;;;;6183439;23;20021;-76
2022/11/08 01:18:12;;;;;;;20.77;10.30;;;6.10;99.90;;;;;;6159363;23;20031;-76
2022/11/08 01:20:43;;;;;;;24.35;11.32;;;6.10;99.90;;;;;;6207594;23;20017;-76
2022/11/08 01:23:11;;;;;;;26.23;12.13;;;6.10;99.90;;;;;;6158408;23;20029;-76
2022/11/08 01:25:40;;;;;;;24.48;10.95;;;6.20;99.90;;;;;;6181489;23;20016;-76
2022/11/08 01:28:08;;;;;;;25.55;11.25;;;6.20;99.90;;;;;;6158174;23;20440;-76
2022/11/08 01:30:36;;;;;;;21.85;10.40;;;6.20;99.90;;;;;;6183048;23;20029;-76
2022/11/08 01:33:04;;;;;;;32.55;12.45;;;6.20;99.90;;;;;;6182968;23;20020;-76
2022/11/08 01:35:32;;;;;;;24.70;12.13;;;6.20;99.90;;;;;;6157076;23;20072;-76
2022/11/08 01:38:00;;;;;;;24.67;11.27;;;6.20;99.90;;;;;;6156681;23;20053;-76
2022/11/08 01:40:28;;;;;;;26.08;11.75;;;6.20;99.90;;;;;;6158112;23;20017;-76
2022/11/08 01:42:55;;;;;;;20.67;10.20;;;6.20;99.90;;;;;;6159051;23;20017;-76
2022/11/08 01:46:14;;;;;;;25.27;10.48;;;6.20;99.90;;;;;;6181433;23;20021;-76
2022/11/08 01:48:48;;;;;;;23.17;10.75;;;6.20;99.90;;;;;;6151018;23;20021;-76
2022/11/08 01:51:19;;;;;;;25.65;11.45;;;6.20;99.90;;;;;;6183104;23;20013;-76
2022/11/08 01:53:47;;;;;;;24.08;10.93;;;6.20;99.90;;;;;;6209065;23;20060;-76
2022/11/08 01:56:15;;;;;;;24.77;11.80;;;6.30;99.90;;;;;;6157020;23;20013;-76
2022/11/08 01:58:44;;;;;;;28.52;11.48;;;6.20;99.90;;;;;;6182258;23;20021;-76
2022/11/08 02:01:12;;;;;;;27.38;12.23;;;6.20;99.90;;;;;;6206665;23;20352;-76
2022/11/08 02:03:40;;;;;;;32.63;12.48;;;6.30;99.90;;;;;;6158546;23;20020;-76
2022/11/08 02:06:08;;;;;;;28.75;11.68;;;6.20;99.90;;;;;;6181241;23;20080;-77
2022/11/08 02:08:40;;;;;;;29.15;13.15;;;6.20;99.90;;;;;;6156975;23;20021;-77
2022/11/08 02:11:13;;;;;;;28.70;12.35;;;6.20;99.90;;;;;;6207398;23;20839;-76
2022/11/08 02:13:40;;;;;;;20.48;9.98;;;6.20;99.90;;;;;;6157942;23;20025;-76
2022/11/08 02:16:16;;;;;;;24.45;11.20;;;6.20;99.90;;;;;;6181949;23;20079;-76
2022/11/08 02:18:44;;;;;;;27.10;10.80;;;6.20;99.90;;;;;;6179589;23;20024;-76
2022/11/08 02:21:43;;;;;;;24.02;10.75;;;6.20;99.90;;;;;;6157443;23;20516;-77
2022/11/08 02:24:11;;;;;;;23.25;10.02;;;6.20;99.90;;;;;;6157668;23;20096;-77
2022/11/08 02:26:39;;;;;;;23.05;10.40;;;6.30;99.90;;;;;;6157773;23;20017;-77
2022/11/08 02:29:26;;;;;;;24.52;11.07;;;6.20;99.90;;;;;;6159334;23;20021;-76
2022/11/08 02:31:54;;;;;;;20.85;10.10;;;6.30;99.90;;;;;;6156529;23;20024;-76
2022/11/08 02:34:44;;;;;;;23.33;10.93;;;6.20;99.90;;;;;;6132981;23;20522;-76
2022/11/08 02:37:14;;;;;;;21.25;10.50;;;6.20;99.90;;;;;;6157228;23;20021;-77
2022/11/08 02:39:41;;;;;;;21.67;10.95;;;6.30;99.90;;;;;;6156663;23;20029;-77
2022/11/08 02:42:15;;;;;;;21.13;10.73;;;6.20;99.90;;;;;;6155584;23;20072;-77
2022/11/08 02:44:43;;;;;;;21.02;10.27;;;6.30;99.90;;;;;;6183872;23;20462;-77
2022/11/08 02:47:11;;;;;;;20.38;11.10;;;6.30;99.90;;;;;;6185307;23;20010;-77
2022/11/08 02:49:38;;;;;;;20.67;10.43;;;6.20;99.90;;;;;;6156736;23;20021;-77
2022/11/08 02:52:05;;;;;;;27.33;11.45;;;6.30;99.90;;;;;;6181938;23;20031;-77
2022/11/08 02:54:32;;;;;;;21.85;9.70;;;6.30;99.90;;;;;;6157044;23;20025;-77
2022/11/08 02:56:59;;;;;;;21.85;10.25;;;6.30;99.90;;;;;;6156312;23;20048;-77
2022/11/08 02:59:26;;;;;;;22.25;10.55;;;6.30;99.90;;;;;;6183278;23;20048;-77
2022/11/08 03:01:53;;;;;;;20.65;10.10;;;6.30;99.90;;;;;;6156649;23;20032;-77
2022/11/08 03:04:21;;;;;;;21.83;10.68;;;6.30;99.90;;;;;;6155624;23;20055;-77
2022/11/08 03:06:48;;;;;;;23.08;10.55;;;6.30;99.90;;;;;;6183373;23;20092;-76
2022/11/08 03:09:15;;;;;;;24.58;11.02;;;6.30;99.90;;;;;;6156864;23;20025;-77
2022/11/08 03:11:42;;;;;;;21.92;9.90;;;6.20;99.90;;;;;;6182554;23;20093;-77
2022/11/08 03:14:09;;;;;;;24.38;12.25;;;6.30;99.90;;;;;;6181026;23;20048;-77
2022/11/08 03:16:36;;;;;;;21.35;10.07;;;6.30;99.90;;;;;;6181082;23;20021;-77
2022/11/08 03:19:03;;;;;;;22.58;10.55;;;6.20;99.90;;;;;;6131974;23;20448;-77
2022/11/08 03:21:30;;;;;;;22.17;10.27;;;6.30;99.90;;;;;;6180700;23;20081;-77
2022/11/08 03:23:57;;;;;;;24.83;12.02;;;6.30;99.90;;;;;;6156700;23;20013;-77
2022/11/08 03:26:24;;;;;;;23.67;11.02;;;6.30;99.90;;;;;;6182073;23;20507;-77
2022/11/08 03:28:51;;;;;;;26.23;11.43;;;6.30;99.90;;;;;;6158156;23;20021;-77
2022/11/08 03:31:18;;;;;;;26.52;11.23;;;6.30;99.90;;;;;;6181688;23;20052;-77
2022/11/08 03:33:45;;;;;;;25.73;11.20;;;6.30;99.90;;;;;;6156838;23;20048;-77
2022/11/08 03:36:12;;;;;;;25.77;11.57;;;6.20;99.90;;;;;;6157726;23;20100;-77
2022/11/08 03:38:40;;;;;;;21.80;10.82;;;6.20;99.90;;;;;;6181877;23;20407;-76
2022/11/08 03:41:07;;;;;;;27.85;11.82;;;6.20;99.90;;;;;;6156382;23;20460;-77
2022/11/08 03:43:34;;;;;;;22.35;10.88;;;6.20;99.90;;;;;;6155662;23;20034;-77
2022/11/08 03:46:01;;;;;;;23.10;10.63;;;6.20;99.90;;;;;;6182100;23;20013;-77
2022/11/08 03:48:28;;;;;;;23.55;10.98;;;6.20;99.90;;;;;;6180818;23;20388;-77
2022/11/08 03:50:55;;;;;;;25.48;11.07;;;6.20;99.90;;;;;;6155550;23;20091;-76
2022/11/08 03:53:21;;;;;;;24.45;10.48;;;6.20;99.90;;;;;;6156588;23;20456;-76
2022/11/08 03:55:49;;;;;;;22.52;11.60;;;6.30;99.90;;;;;;6158388;23;20022;-76
2022/11/08 03:58:16;;;;;;;25.17;11.20;;;6.20;99.90;;;;;;6205529;23;20032;-76
2022/11/08 04:00:43;;;;;;;23.30;10.77;;;6.20;99.90;;;;;;6155130;23;20017;-76
2022/11/08 04:03:10;;;;;;;24.17;11.07;;;6.30;99.90;;;;;;6182175;23;20021;-76
2022/11/08 04:05:37;;;;;;;20.83;9.20;;;6.20;99.90;;;;;;6181514;23;20013;-76
2022/11/08 04:08:05;;;;;;;21.63;10.25;;;6.20;99.90;;;;;;6155923;23;20121;-76
2022/11/08 04:10:32;;;;;;;23.60;10.48;;;6.20;99.90;;;;;;6183393;23;20017;-76
2022/11/08 04:15:52;;;;;;;23.23;9.73;;;6.30;99.90;;;;;;6184538;23;20048;-76
2022/11/08 04:21:19;;;;;;;18.08;9.00;;;6.30;99.90;;;;;;6207161;23;20121;-76
2022/11/08 04:23:47;;;;;;;20.00;9.68;;;6.30;99.90;;;;;;6183118;23;20025;-77
2022/11/08 04:26:15;;;;;;;20.65;9.93;;;6.30;99.90;;;;;;6158829;23;20028;-77
2022/11/08 04:28:42;;;;;;;16.67;8.77;;;6.30;99.90;;;;;;6207570;23;20024;-77
2022/11/08 04:31:16;;;;;;;21.67;10.55;;;6.30;99.90;;;;;;6182161;23;20025;-77
2022/11/08 04:33:43;;;;;;;24.40;9.73;;;6.30;99.90;;;;;;6159363;23;20040;-77
2022/11/08 04:36:16;;;;;;;22.52;9.98;;;6.30;99.90;;;;;;6182303;23;20024;-76
2022/11/08 04:38:46;;;;;;;23.63;10.77;;;6.30;99.90;;;;;;6182195;23;20039;-77
2022/11/08 04:41:14;;;;;;;23.98;11.30;;;6.30;99.90;;;;;;6156990;23;20025;-77
2022/11/08 04:43:41;;;;;;;22.67;10.20;;;6.30;99.90;;;;;;6158436;23;20028;-77
2022/11/08 04:46:11;;;;;;;20.60;9.63;;;6.30;99.90;;;;;;6155874;23;20013;-77
2022/11/08 04:48:39;;;;;;;28.10;12.30;;;6.30;99.90;;;;;;6156948;23;20024;-77
2022/11/08 04:51:15;;;;;;;21.90;11.35;;;6.30;99.90;;;;;;6158434;23;20025;-77
2022/11/08 04:53:42;;;;;;;23.52;10.98;;;6.20;99.90;;;;;;6184935;23;20021;-77
2022/11/08 04:56:12;;;;;;;18.45;9.68;;;6.30;99.90;;;;;;6159447;23;20025;-77
2022/11/08 04:58:42;;;;;;;19.92;8.93;;;6.20;99.90;;;;;;6158645;23;20084;-77
2022/11/08 05:01:12;;;;;;;19.90;9.60;;;6.20;99.90;;;;;;6178843;23;20064;-77
2022/11/08 05:03:39;;;;;;;17.27;9.60;;;6.20;99.90;;;;;;6177812;23;20025;-77
2022/11/08 05:06:18;;;;;;;17.25;8.75;;;6.20;99.90;;;;;;6156141;23;20013;-77
2022/11/08 05:08:46;;;;;;;17.30;8.70;;;6.20;99.90;;;;;;6157147;23;20025;-77
2022/11/08 05:11:16;;;;;;;18.00;8.65;;;6.20;99.90;;;;;;6134345;23;20403;-77
2022/11/08 05:13:44;;;;;;;17.67;8.80;;;6.20;99.90;;;;;;6208482;23;20039;-77
2022/11/08 05:16:23;;;;;;;18.95;10.68;;;6.20;99.90;;;;;;6155935;23;20025;-77
2022/11/08 05:18:50;;;;;;;19.95;9.90;;;6.20;99.90;;;;;;6159935;23;20017;-77
2022/11/08 05:24:07;;;;;;;16.15;8.52;;;6.10;99.90;;;;;;6154478;23;20021;-77
2022/11/08 05:26:36;;;;;;;16.92;8.15;;;6.10;99.90;;;;;;6129629;23;20013;-77
2022/11/08 05:29:03;;;;;;;16.08;8.27;;;6.10;99.90;;;;;;6127529;23;20028;-77
2022/11/08 05:31:31;;;;;;;15.52;8.20;;;6.20;99.90;;;;;;6177706;23;20201;-77
2022/11/08 05:33:59;;;;;;;16.70;8.48;;;6.20;99.90;;;;;;6129706;23;20021;-77
2022/11/08 05:36:27;;;;;;;18.50;8.10;;;6.10;99.90;;;;;;6128672;23;20021;-77
2022/11/08 05:38:55;;;;;;;16.45;8.05;;;6.10;99.90;;;;;;6128471;23;20072;-77
2022/11/08 05:41:23;;;;;;;18.98;9.30;;;6.10;99.90;;;;;;6177244;23;20021;-77
2022/11/08 05:43:52;;;;;;;18.35;9.68;;;6.10;99.90;;;;;;6129706;23;20017;-77
2022/11/08 05:46:21;;;;;;;14.65;7.65;;;6.20;99.90;;;;;;6151892;23;20021;-77
2022/11/08 05:48:48;;;;;;;14.93;7.88;;;6.20;99.90;;;;;;6176733;23;20017;-77
2022/11/08 05:51:17;;;;;;;15.50;7.72;;;6.20;99.90;;;;;;6177838;23;20029;-77
2022/11/08 05:53:47;;;;;;;16.60;8.05;;;6.20;99.90;;;;;;6129207;23;20076;-77
2022/11/08 05:56:15;;;;;;;17.10;8.80;;;6.10;99.90;;;;;;6129509;23;20099;-77
2022/11/08 05:58:43;;;;;;;24.92;11.07;;;6.20;99.90;;;;;;6152280;23;20024;-77
2022/11/08 06:01:13;;;;;;;18.13;10.32;;;6.10;99.90;;;;;;6152521;23;20022;-77
2022/11/08 06:03:40;;;;;;;19.73;8.52;;;6.20;99.90;;;;;;6128559;23;20022;-77
2022/11/08 06:06:10;;;;;;;17.23;8.63;;;6.20;99.90;;;;;;6127423;23;20101;-77
2022/11/08 06:08:37;;;;;;;20.88;9.38;;;6.20;99.90;;;;;;6129671;23;20026;-77
2022/11/08 06:11:07;;;;;;;23.27;11.18;;;6.10;99.90;;;;;;6128657;23;20028;-77
2022/11/08 06:13:35;;;;;;;24.90;10.93;;;6.20;99.90;;;;;;6127343;23;20080;-77
2022/11/08 06:16:04;;;;;;;29.85;13.02;;;6.10;99.90;;;;;;6151202;23;20038;-77
2022/11/08 06:18:33;;;;;;;30.80;12.82;;;6.20;99.90;;;;;;6153218;23;20052;-77
2022/11/08 06:21:01;;;;;;;23.27;12.35;;;6.20;99.90;;;;;;6152141;23;20021;-77
2022/11/08 06:23:28;;;;;;;18.65;10.18;;;6.20;99.90;;;;;;6127980;23;20030;-77
2022/11/08 06:25:55;;;;;;;22.48;10.15;;;6.20;99.90;;;;;;6151419;23;20389;-77
2022/11/08 06:28:23;;;;;;;18.85;9.18;;;6.30;99.90;;;;;;6152824;23;20045;-77
2022/11/08 06:30:50;;;;;;;17.15;8.73;;;6.20;99.90;;;;;;6177554;23;20029;-77
2022/11/08 06:33:19;;;;;;;17.63;8.77;;;6.20;99.90;;;;;;6127366;23;20262;-77
2022/11/08 06:35:46;;;;;;;20.52;10.00;;;4.90;99.90;;;;;;6127552;23;20021;-77
2022/11/08 06:38:13;;;;;;;21.17;9.82;;;6.20;99.90;;;;;;6128812;23;20022;-77
2022/11/08 06:40:41;;;;;;;19.92;8.52;;;5.30;99.90;;;;;;6129443;23;20017;-77
2022/11/08 06:43:10;;;;;;;19.98;9.63;;;6.30;99.90;;;;;;6151987;23;20361;-77
2022/11/08 06:45:45;;;;;;;18.10;9.10;;;6.20;99.90;;;;;;6153299;23;20484;-77
2022/11/08 06:48:12;;;;;;;22.42;10.98;;;6.20;99.90;;;;;;6153312;23;20018;-77
2022/11/08 06:50:41;;;;;;;22.50;10.18;;;6.20;99.90;;;;;;6127502;23;20025;-77
2022/11/08 06:53:13;;;;;;;22.42;11.90;;;5.90;99.90;;;;;;6081688;23;20025;-77
2022/11/08 06:55:41;;;;;;;19.55;10.35;;;6.20;99.90;;;;;;6153730;23;20841;-77
2022/11/08 06:58:09;;;;;;;19.83;9.57;;;6.20;99.90;;;;;;6128075;23;20021;-77
2022/11/08 07:00:36;;;;;;;18.52;8.18;;;6.20;99.90;;;;;;6152655;23;20412;-77
2022/11/08 07:50:54;;;;;;;19.33;8.75;;;6.70;99.90;;;;;;6239311;23;20020;-79
2022/11/08 07:53:24;;;;;;;19.13;9.50;;;6.70;99.90;;;;;;6156523;23;20025;-77
2022/11/08 07:55:53;;;;;;;17.42;8.68;;;6.70;99.90;;;;;;6157666;23;20049;-77
2022/11/08 07:58:21;;;;;;;20.65;9.57;;;6.60;99.90;;;;;;6154419;23;20042;-77
2022/11/08 08:00:49;;;;;;;20.98;9.63;;;6.70;99.90;;;;;;6156415;23;20013;-77
2022/11/08 08:03:18;;;;;;;23.80;11.77;;;6.80;99.90;;;;;;6158184;23;20013;-77
2022/11/08 08:05:51;;;;;;;22.13;9.95;;;6.80;99.90;;;;;;6134303;23;20065;-77
2022/11/08 08:11:44;;;;;;;18.88;9.05;;;7.00;99.90;;;;;;6220797;22;20031;-78
2022/11/08 08:14:12;;;;;;;18.98;9.63;;;7.00;99.90;;;;;;6192701;23;20000;-78
2022/11/08 08:19:43;;;;;;;20.20;9.68;;;7.10;99.90;;;;;;6202018;23;19927;-77
2022/11/08 08:22:13;;;;;;;15.35;7.93;;;7.10;99.90;;;;;;6206583;23;20017;-78
2022/11/08 08:24:40;;;;;;;19.33;9.73;;;7.10;99.90;;;;;;6207229;23;20080;-78
2022/11/08 08:27:10;;;;;;;21.67;9.45;;;7.20;99.90;;;;;;6199043;23;20027;-78
2022/11/08 08:29:37;;;;;;;21.30;9.32;;;7.10;99.90;;;;;;6201577;23;20352;-78
2022/11/08 08:32:05;;;;;;;22.15;9.55;;;7.20;99.90;;;;;;6213402;23;20005;-78
2022/11/08 08:34:46;;;;;;;21.48;9.27;;;7.30;99.90;;;;;;5099902;27;20791;-80
2022/11/08 08:37:14;;;;;;;21.30;9.57;;;7.40;99.90;;;;;;5083345;28;20588;-79
2022/11/08 08:39:41;;;;;;;19.40;8.32;;;7.40;99.90;;;;;;5102942;28;20135;-80
2022/11/08 08:42:08;;;;;;;17.98;7.63;;;7.40;99.90;;;;;;5084958;28;20044;-80
2022/11/08 08:44:35;;;;;;;25.83;9.10;;;7.50;99.90;;;;;;5090955;28;20894;-80
2022/11/08 08:47:02;;;;;;;20.15;9.18;;;7.50;99.90;;;;;;5098757;28;20116;-80
2022/11/08 08:49:29;;;;;;;17.63;7.57;;;7.50;99.90;;;;;;5097707;28;20415;-80
2022/11/08 08:51:56;;;;;;;20.25;9.02;;;7.70;99.90;;;;;;5100811;28;20375;-80
2022/11/08 08:54:23;;;;;;;21.63;9.32;;;7.60;99.90;;;;;;5097916;28;20043;-80
2022/11/08 08:56:55;;;;;;;19.77;8.70;;;7.60;99.90;;;;;;5093725;28;20044;-80
2022/11/08 08:59:22;;;;;;;17.75;7.80;;;7.60;99.90;;;;;;5088664;28;20032;-80
2022/11/08 09:02:15;;;;;;;19.52;8.38;;;7.70;99.90;;;;;;5085667;28;20109;-80
2022/11/08 09:04:42;;;;;;;20.25;8.88;;;7.80;99.90;;;;;;5083206;28;20072;-80
2022/11/08 09:07:09;;;;;;;19.15;8.65;;;7.80;99.90;;;;;;5094532;28;20048;-80
2022/11/08 09:09:37;;;;;;;21.48;9.27;;;7.90;99.90;;;;;;5085971;28;20052;-80
2022/11/08 09:12:04;;;;;;;28.00;11.40;;;7.80;99.90;;;;;;5105139;28;20036;-80
2022/11/08 09:14:39;;;;;;;24.27;10.20;;;7.90;99.90;;;;;;5085844;28;20044;-79
2022/11/08 09:17:06;;;;;;;22.92;10.45;;;7.90;99.90;;;;;;5102891;28;20482;-79
2022/11/08 09:19:33;;;;;;;24.67;10.25;;;7.90;99.90;;;;;;5104162;28;20036;-79
2022/11/08 09:22:00;;;;;;;25.17;11.32;;;8.00;99.90;;;;;;5095332;28;20040;-79
2022/11/08 09:24:27;;;;;;;27.13;10.77;;;8.00;99.90;;;;;;5094320;28;20044;-80
2022/11/08 09:26:55;;;;;;;24.65;10.40;;;8.10;99.90;;;;;;5093163;28;20048;-80
2022/11/08 09:29:22;;;;;;;23.88;11.13;;;8.10;99.90;;;;;;5094587;28;20036;-80
2022/11/08 09:31:48;;;;;;;27.60;11.32;;;8.10;99.90;;;;;;5097862;28;20048;-80
2022/11/08 09:34:16;;;;;;;30.15;12.32;;;8.20;99.90;;;;;;5093790;28;20055;-80
2022/11/08 09:36:47;;;;;;;30.95;12.15;;;8.20;99.90;;;;;;5096216;28;20054;-79
2022/11/08 09:39:15;;;;;;;27.40;12.27;;;8.30;99.90;;;;;;5080512;28;20090;-79
2022/11/08 09:42:00;;;;;;;30.25;12.18;;;8.40;99.90;;;;;;5078925;28;20466;-79
2022/11/08 09:45:05;;;;;;;28.83;11.90;;;8.40;99.90;;;;;;5077355;28;20599;-79
2022/11/08 09:47:38;;;;;;;33.03;13.88;;;8.60;99.90;;;;;;5080951;28;20041;-79
2022/11/08 09:50:17;;;;;;;32.22;15.45;;;8.60;99.90;;;;;;5079417;28;20043;-79
2022/11/08 09:53:02;;;;;;;31.83;12.90;;;8.50;99.90;;;;;;5080449;28;20071;-79
2022/11/08 09:55:51;;;;;;;35.75;14.18;;;8.60;99.90;;;;;;5082845;28;20091;-79
2022/11/08 09:58:24;;;;;;;36.50;14.15;;;8.70;99.90;;;;;;5080975;28;20505;-79
2022/11/08 10:00:52;;;;;;;33.83;14.82;;;8.80;99.90;;;;;;5081235;28;20037;-79
2022/11/08 10:03:23;;;;;;;37.95;15.48;;;8.90;99.90;;;;;;5079814;28;20076;-79
2022/11/08 10:06:29;;;;;;;32.25;14.63;;;8.90;99.90;;;;;;5084748;28;20051;-79
2022/11/08 10:09:12;;;;;;;32.15;13.27;;;9.00;99.90;;;;;;5086833;28;20048;-79
2022/11/08 10:11:54;;;;;;;33.30;13.53;;;9.00;99.90;;;;;;5085706;28;20995;-79
2022/11/08 10:14:21;;;;;;;34.53;14.50;;;9.20;99.90;;;;;;5076981;28;20036;-79
2022/11/08 10:17:10;;;;;;;29.52;13.52;;;9.20;99.90;;;;;;5059827;28;20036;-79
2022/11/08 10:20:06;;;;;;;37.78;14.27;;;9.20;99.90;;;;;;5077330;28;20094;-80
2022/11/08 10:23:11;;;;;;;35.35;14.88;;;9.30;99.90;;;;;;5081293;28;20041;-80
2022/11/08 10:25:46;;;;;;;31.00;13.18;;;9.40;99.90;;;;;;5064137;28;20058;-80
2022/11/08 10:28:22;;;;;;;32.88;13.73;;;9.50;99.90;;;;;;5084191;28;20462;-80
2022/11/08 10:30:52;;;;;;;35.50;13.85;;;9.50;99.90;;;;;;5084413;28;20479;-79
2022/11/08 10:33:31;;;;;;;29.77;13.10;;;9.60;99.90;;;;;;5062012;28;20056;-79
2022/11/08 10:36:12;;;;;;;25.08;10.77;;;9.70;99.90;;;;;;5083789;28;20470;-79
2022/11/08 10:38:49;;;;;;;29.55;10.95;;;9.60;99.90;;;;;;5079079;28;20090;-79
2022/11/08 10:41:44;;;;;;;31.52;13.80;;;9.50;99.90;;;;;;5069358;28;20059;-80
2022/11/08 10:44:23;;;;;;;37.10;14.10;;;9.40;99.90;;;;;;5066002;28;20073;-80
2022/11/08 10:46:58;;;;;;;35.33;14.65;;;9.80;99.90;;;;;;5080752;28;21378;-80
2022/11/08 10:49:32;;;;;;;32.30;12.98;;;9.90;99.90;;;;;;5077193;28;20040;-79
2022/11/08 10:52:11;;;;;;;31.65;13.73;;;10.00;99.90;;;;;;5067505;28;20055;-80
2022/11/08 10:54:42;;;;;;;34.85;14.60;;;10.10;99.90;;;;;;5077237;28;20067;-80
2022/11/08 10:57:12;;;;;;;35.53;16.27;;;10.10;99.90;;;;;;5071506;28;20044;-80
2022/11/08 10:59:39;;;;;;;31.08;13.85;;;10.20;99.90;;;;;;5078200;28;20051;-80
2022/11/08 11:02:20;;;;;;;35.45;16.48;;;10.30;99.90;;;;;;5062266;28;20094;-80
2022/11/08 11:04:48;;;;;;;39.45;16.23;;;10.30;99.90;;;;;;5082923;28;20315;-80
2022/11/08 11:07:25;;;;;;;37.47;14.95;;;10.50;99.90;;;;;;5081167;28;20040;-80
2022/11/08 11:09:52;;;;;;;39.40;16.85;;;10.50;99.90;;;;;;5081054;28;20131;-79
2022/11/08 11:12:19;;;;;;;36.90;16.35;;;10.50;99.90;;;;;;5076162;28;20040;-80
2022/11/08 11:14:56;;;;;;;41.05;15.98;;;10.70;99.90;;;;;;5079943;28;20049;-80
2022/11/08 11:17:32;;;;;;;34.20;14.98;;;10.80;99.90;;;;;;5079985;28;20060;-80
2022/11/08 11:20:17;;;;;;;39.85;16.77;;;10.80;99.90;;;;;;5068244;28;20131;-80
2022/11/08 11:22:45;;;;;;;36.55;15.20;;;10.90;99.90;;;;;;5095652;28;20040;-79
2022/11/08 11:25:30;;;;;;;39.20;15.13;;;11.00;99.90;;;;;;5085387;28;20044;-79
2022/11/08 11:27:59;;;;;;;45.08;17.38;;;11.00;99.90;;;;;;5071035;28;20970;-79
2022/11/08 11:30:27;;;;;;;34.30;14.60;;;11.10;99.90;;;;;;5077601;28;20040;-80
2022/11/08 11:32:58;;;;;;;34.03;13.90;;;11.10;99.90;;;;;;5083951;28;20056;-78
2022/11/08 11:35:33;;;;;;;39.13;15.68;;;11.20;99.90;;;;;;5084643;28;20043;-78
2022/11/08 11:38:02;;;;;;;37.60;15.75;;;11.20;99.90;;;;;;5095065;28;20037;-78
2022/11/08 11:40:42;;;;;;;37.42;14.88;;;11.20;99.90;;;;;;5079622;28;20138;-80
2022/11/08 11:43:59;;;;;;;36.25;13.93;;;11.30;99.90;;;;;;5064918;28;20056;-79
2022/11/08 11:46:37;;;;;;;37.80;15.23;;;11.40;99.90;;;;;;5091706;28;20372;-79
2022/11/08 11:49:15;;;;;;;44.22;16.38;;;11.50;99.90;;;;;;5069349;28;20239;-79
2022/11/08 11:51:42;;;;;;;45.45;17.67;;;11.60;99.90;;;;;;5076667;28;20037;-80
2022/11/08 11:54:13;;;;;;;43.70;16.92;;;11.60;99.90;;;;;;5072735;28;20391;-80
2022/11/08 11:56:46;;;;;;;45.78;17.55;;;11.70;99.90;;;;;;5075769;28;20044;-80
2022/11/08 11:59:24;;;;;;;;;;;11.70;99.90;;;;;;5077802;28;20455;-80
2022/11/08 12:02:00;;;;;;;36.67;16.33;;;11.70;99.90;;;;;;5080487;28;19920;-79
2022/11/08 12:04:42;;;;;;;38.70;15.70;;;11.80;99.90;;;;;;5073660;28;20048;-79
2022/11/08 12:07:15;;;;;;;42.03;15.80;;;11.80;99.90;;;;;;5078876;28;20044;-79
2022/11/08 12:10:01;;;;;;;;;;;11.90;99.90;;;;;;5075071;28;20059;-79
2022/11/08 12:13:09;;;;;;;49.35;17.08;;;12.00;99.90;;;;;;5085291;28;19950;-79
2022/11/08 12:15:43;;;;;;;55.33;19.13;;;12.10;99.90;;;;;;5046389;28;20045;-79
2022/11/08 12:18:13;;;;;;;41.85;14.02;;;12.20;99.90;;;;;;5062307;28;20042;-79
2022/11/08 12:21:24;;;;;;;42.67;17.08;;;12.30;99.90;;;;;;5063289;28;20044;-79
2022/11/08 12:24:04;;;;;;;57.42;17.60;;;12.30;99.90;;;;;;5066525;28;20040;-79
2022/11/08 12:27:00;;;;;;;56.38;17.63;;;12.20;99.90;;;;;;5066067;28;20083;-79
2022/11/08 12:30:02;;;;;;;51.15;18.02;;;12.10;99.90;;;;;;5066980;28;20044;-80
2022/11/08 12:32:58;;;;;;;49.45;17.38;;;12.00;99.90;;;;;;5075874;28;20060;-79
2022/11/08 12:35:35;;;;;;;47.70;17.15;;;12.00;99.90;;;;;;5048412;28;20053;-78
2022/11/08 12:38:28;;;;;;;42.72;15.68;;;12.10;99.90;;;;;;5082659;28;20048;-79
2022/11/08 12:41:03;;;;;;;41.75;16.88;;;12.10;99.90;;;;;;5084738;28;20048;-79
2022/11/08 12:43:52;;;;;;;34.13;13.55;;;12.20;99.90;;;;;;5075628;28;20052;-80
2022/11/08 12:46:20;;;;;;;38.05;16.33;;;12.10;99.90;;;;;;5059711;28;20040;-79
2022/11/08 12:49:00;;;;;;;38.92;15.07;;;12.00;99.90;;;;;;5064004;28;20510;-79
2022/11/08 12:51:57;;;;;;;40.15;16.10;;;12.00;99.90;;;;;;5067206;28;20066;-79
2022/11/08 12:54:36;;;;;;;35.10;15.75;;;11.90;99.90;;;;;;5077243;28;20040;-79
2022/11/08 12:57:16;;;;;;;33.55;14.85;;;11.80;99.90;;;;;;5063486;28;20098;-79
2022/11/08 13:00:15;;;;;;;39.75;17.73;;;11.70;99.90;;;;;;5082424;28;20391;-79
2022/11/08 13:02:47;;;;;;;30.30;13.30;;;11.60;99.90;;;;;;5065710;28;20048;-79
2022/11/08 13:05:23;;;;;;;38.53;16.77;;;11.50;99.90;;;;;;5058819;28;20105;-79
2022/11/08 13:08:14;;;;;;;35.38;15.48;;;11.50;99.90;;;;;;5080961;28;20055;-79
2022/11/08 13:11:01;;;;;;;33.60;15.13;;;11.50;99.90;;;;;;5084701;28;20041;-79
2022/11/08 13:13:53;;;;;;;36.45;16.60;;;11.60;99.90;;;;;;5084914;28;20036;-79
2022/11/08 13:16:21;;;;;;;30.42;12.75;;;11.50;99.90;;;;;;5077298;28;20517;-77
2022/11/08 13:18:55;;;;;;;35.25;14.40;;;11.60;99.90;;;;;;5062396;28;20127;-79
2022/11/08 13:21:25;;;;;;;38.05;16.65;;;11.50;99.90;;;;;;5082587;28;20051;-79
2022/11/08 13:23:53;;;;;;;40.58;15.52;;;11.40;99.90;;;;;;5070310;28;20036;-79
2022/11/08 13:26:23;;;;;;;33.20;14.18;;;11.40;99.90;;;;;;5078062;28;20124;-79
2022/11/08 13:28:52;;;;;;;32.55;13.40;;;11.40;99.90;;;;;;5084415;28;20048;-78
2022/11/08 13:31:25;;;;;;;30.20;14.13;;;11.30;99.90;;;;;;5081585;28;20047;-80
2022/11/08 13:34:28;;;;;;;34.95;13.80;;;11.20;99.90;;;;;;5079986;28;20044;-80
2022/11/08 13:37:38;;;;;;;30.33;13.00;;;11.10;99.90;;;;;;5052864;28;20044;-80
2022/11/08 13:40:11;;;;;;;31.92;14.50;;;11.10;99.90;;;;;;5081753;28;20046;-79
2022/11/08 13:43:20;;;;;;;34.17;15.18;;;11.00;99.90;;;;;;5085850;28;20036;-78
2022/11/08 13:45:48;;;;;;;38.10;16.13;;;11.00;99.90;;;;;;5080095;28;20074;-79
2022/11/08 13:48:24;;;;;;;32.42;14.48;;;11.00;99.90;;;;;;5082467;28;20052;-79
2022/11/08 13:50:55;;;;;;;36.28;16.17;;;11.00;99.90;;;;;;5076525;28;20048;-77
2022/11/08 13:53:42;;;;;;;33.42;14.55;;;10.90;99.90;;;;;;5069832;28;20044;-76
2022/11/08 13:56:09;;;;;;;41.35;17.05;;;10.90;99.90;;;;;;5089111;28;20036;-76
2022/11/08 13:58:39;;;;;;;46.42;18.38;;;10.90;99.90;;;;;;5077945;28;20041;-77
2022/11/08 14:01:21;;;;;;;39.70;17.38;;;10.80;99.90;;;;;;5079199;28;20059;-77
2022/11/08 14:03:48;;;;;;;40.15;17.73;;;10.80;99.90;;;;;;5087272;28;20050;-76
2022/11/08 14:06:43;;;;;;;42.63;17.13;;;10.70;99.90;;;;;;5087745;28;20036;-77
2022/11/08 14:09:10;;;;;;;46.60;18.48;;;10.60;99.90;;;;;;5082726;28;20036;-77
2022/11/08 14:11:48;;;;;;;46.35;19.48;;;10.50;99.90;;;;;;5067386;28;20101;-76
2022/11/08 14:14:15;;;;;;;41.33;17.13;;;10.50;99.90;;;;;;5065354;28;20094;-77
2022/11/08 14:17:00;;;;;;;40.55;16.10;;;10.50;99.90;;;;;;5082154;28;20037;-77
2022/11/08 14:19:31;;;;;;;48.03;18.10;;;10.40;99.90;;;;;;5082034;28;20036;-77
2022/11/08 14:22:00;;;;;;;48.88;21.35;;;10.40;99.90;;;;;;5076977;28;20041;-77